createdAt,value
2023-10-06T00:02:49.458Z,11.12
2023-10-06T00:07:51.952Z,11.08
2023-10-06T00:12:59.847Z,11.06
2023-10-06T00:18:04.435Z,11.07
2023-10-06T00:23:08.141Z,11.10
2023-10-06T00:28:19.271Z,11.13
2023-10-06T00:33:21.436Z,11.16
2023-10-06T00:38:23.106Z,11.18
2023-10-06T00:43:45.406Z,11.18
2023-10-06T00:48:55.260Z,11.19
2023-10-06T00:53:58.017Z,11.19
2023-10-06T00:59:05.385Z,11.16
2023-10-06T01:04:11.476Z,11.14
2023-10-06T01:09:13.013Z,11.11
2023-10-06T01:14:35.753Z,11.09
2023-10-06T01:19:38.106Z,11.04
2023-10-06T01:24:39.694Z,10.97
2023-10-06T01:29:43.324Z,10.86
2023-10-06T01:34:46.237Z,10.74
2023-10-06T01:39:49.743Z,10.64
2023-10-06T01:44:51.471Z,10.55
2023-10-06T01:49:53.028Z,10.46
2023-10-06T01:54:59.682Z,10.38
2023-10-06T02:00:01.189Z,10.31
2023-10-06T02:05:02.733Z,10.23
2023-10-06T02:10:05.062Z,10.15
2023-10-06T02:15:11.764Z,10.10
2023-10-06T02:20:30.402Z,10.06
2023-10-06T02:25:33.018Z,10.01
2023-10-06T02:30:35.277Z,9.97
2023-10-06T02:35:37.372Z,9.91
2023-10-06T02:40:46.516Z,9.87
2023-10-06T02:45:48.662Z,9.81
2023-10-06T02:50:55.820Z,9.75
2023-10-06T02:55:57.524Z,9.70
2023-10-06T03:00:59.305Z,9.66
2023-10-06T03:06:08.460Z,9.61
2023-10-06T03:11:13.425Z,9.59
2023-10-06T03:16:21.045Z,9.57
2023-10-06T03:21:23.865Z,9.59
2023-10-06T03:26:35.829Z,9.63
2023-10-06T03:31:46.548Z,9.68
2023-10-06T03:36:52.940Z,9.74
2023-10-06T03:42:02.477Z,9.81
2023-10-06T03:47:09.174Z,9.88
2023-10-06T03:52:14.333Z,9.93
2023-10-06T03:57:17.127Z,9.97
2023-10-06T04:02:20.317Z,10.02
2023-10-06T04:07:24.907Z,10.06
2023-10-06T04:12:27.079Z,10.09
2023-10-06T04:17:30.738Z,10.10
2023-10-06T04:22:33.265Z,10.13
2023-10-06T04:27:36.186Z,10.15
2023-10-06T04:32:39.590Z,10.18
2023-10-06T04:37:41.214Z,10.21
2023-10-06T04:42:42.876Z,10.22
2023-10-06T04:47:44.514Z,10.23
2023-10-06T04:52:48.167Z,10.18
2023-10-06T04:57:50.081Z,10.11
2023-10-06T05:02:51.665Z,10.06
2023-10-06T05:07:55.160Z,10.08
2023-10-06T05:12:57.042Z,10.11
2023-10-06T05:18:00.160Z,10.13
2023-10-06T05:23:11.069Z,10.20
2023-10-06T05:28:14.564Z,10.27
2023-10-06T05:33:16.089Z,10.35
2023-10-06T05:38:17.912Z,10.39
2023-10-06T05:43:19.596Z,10.45
2023-10-06T05:48:26.240Z,10.55
2023-10-06T05:53:31.596Z,10.68
2023-10-06T05:58:35.716Z,10.77
2023-10-06T06:03:40.212Z,10.79
2023-10-06T06:08:44.625Z,10.79
2023-10-06T06:13:52.706Z,10.84
2023-10-06T06:18:57.588Z,10.81
2023-10-06T06:23:59.544Z,10.87
2023-10-06T06:29:04.274Z,10.99
2023-10-06T06:34:06.155Z,11.19
2023-10-06T06:39:11.632Z,11.42
2023-10-06T06:44:14.258Z,11.72
2023-10-06T06:49:15.925Z,11.86
2023-10-06T06:54:17.483Z,11.83
2023-10-06T06:59:20.359Z,12.10
2023-10-06T07:04:27.238Z,12.44
2023-10-06T07:09:28.808Z,12.54
2023-10-06T07:14:31.090Z,12.61
2023-10-06T07:19:32.614Z,12.83
2023-10-06T07:24:34.972Z,12.92
2023-10-06T07:29:36.547Z,12.98
2023-10-06T07:34:38.109Z,13.01
2023-10-06T07:39:39.618Z,12.98
2023-10-06T07:44:41.190Z,12.94
2023-10-06T07:49:43.720Z,12.99
2023-10-06T07:54:45.424Z,12.97
2023-10-06T07:59:47.889Z,12.94
2023-10-06T08:04:49.464Z,13.02
2023-10-06T08:09:52.966Z,13.17
2023-10-06T08:14:55.666Z,13.38
2023-10-06T08:19:57.189Z,13.46
2023-10-06T08:24:59.925Z,13.46
2023-10-06T08:30:01.629Z,13.54
2023-10-06T08:35:03.526Z,13.59
2023-10-06T08:40:08.881Z,13.63
2023-10-06T08:45:11.573Z,13.76
2023-10-06T08:50:15.166Z,13.88
2023-10-06T08:55:19.261Z,14.16
2023-10-06T09:00:25.803Z,14.39
2023-10-06T09:05:29.674Z,14.48
2023-10-06T09:10:35.942Z,14.44
2023-10-06T09:15:40.281Z,14.55
2023-10-06T09:20:41.962Z,14.60
2023-10-06T09:25:47.443Z,14.54
2023-10-06T09:31:03.273Z,14.64
2023-10-06T09:36:32.011Z,14.87
2023-10-06T09:41:39.448Z,14.89
2023-10-06T09:46:44.539Z,14.91
2023-10-06T09:51:47.382Z,14.96
2023-10-06T09:56:49.476Z,15.08
2023-10-06T10:01:52.939Z,14.99
2023-10-06T10:06:56.170Z,15.08
2023-10-06T10:12:09.474Z,15.11
2023-10-06T10:17:24.388Z,14.91
2023-10-06T10:22:26.470Z,14.98
2023-10-06T10:27:28.613Z,15.23
2023-10-06T10:32:30.692Z,15.39
2023-10-06T10:37:32.474Z,15.52
2023-10-06T10:42:42.338Z,15.51
2023-10-06T10:47:44.144Z,15.48
2023-10-06T10:52:45.806Z,15.58
2023-10-06T10:57:47.434Z,15.78
2023-10-06T11:02:52.153Z,15.74
2023-10-06T11:08:00.876Z,15.64
2023-10-06T11:13:20.473Z,15.62
2023-10-06T11:18:23.897Z,15.70
2023-10-06T11:23:25.841Z,15.72
2023-10-06T11:28:42.221Z,15.77
2023-10-06T11:33:43.837Z,15.69
2023-10-06T11:38:46.342Z,15.82
2023-10-06T11:43:56.045Z,16.07
2023-10-06T11:49:12.719Z,16.28
2023-10-06T11:54:15.009Z,16.47
2023-10-06T11:59:23.665Z,16.53
2023-10-06T12:04:32.934Z,16.43
2023-10-06T12:09:35.094Z,16.37
2023-10-06T12:14:37.810Z,16.50
2023-10-06T12:19:39.731Z,16.54
2023-10-06T12:24:41.709Z,16.55
2023-10-06T12:29:43.285Z,16.61
2023-10-06T12:34:44.826Z,16.61
2023-10-06T12:39:46.919Z,16.67
2023-10-06T12:44:48.509Z,16.74
2023-10-06T12:49:50.040Z,16.81
2023-10-06T12:54:52.928Z,16.91
2023-10-06T12:59:57.193Z,16.82
2023-10-06T13:05:08.964Z,16.78
2023-10-06T13:10:11.238Z,16.62
2023-10-06T13:15:15.690Z,16.54
2023-10-06T13:20:18.085Z,16.53
2023-10-06T13:25:19.836Z,16.56
2023-10-06T13:30:21.845Z,16.61
2023-10-06T13:35:25.773Z,16.64
2023-10-06T13:40:29.815Z,16.54
2023-10-06T13:45:32.457Z,16.41
2023-10-06T13:50:34.529Z,16.31
2023-10-06T13:55:36.398Z,16.26
2023-10-06T14:00:41.766Z,16.23
2023-10-06T14:05:47.618Z,16.20
2023-10-06T14:10:51.065Z,16.22
2023-10-06T14:15:56.260Z,16.21
2023-10-06T14:21:04.140Z,16.17
2023-10-06T14:26:10.776Z,16.09
2023-10-06T14:31:27.126Z,16.03
2023-10-06T14:36:29.553Z,16.06
2023-10-06T14:41:49.875Z,16.04
2023-10-06T14:46:53.275Z,15.91
2023-10-06T14:51:59.957Z,15.75
2023-10-06T14:57:06.552Z,15.64
2023-10-06T15:02:11.442Z,15.47
2023-10-06T15:07:16.239Z,15.29
2023-10-06T15:12:18.544Z,15.12
2023-10-06T15:17:25.682Z,14.95
2023-10-06T15:22:27.766Z,14.82
2023-10-06T15:27:29.329Z,14.72
2023-10-06T15:32:31.914Z,14.65
2023-10-06T15:37:33.968Z,14.61
2023-10-06T15:42:39.643Z,14.58
2023-10-06T15:47:41.327Z,14.52
2023-10-06T15:52:42.971Z,14.47
2023-10-06T15:57:44.557Z,14.44
2023-10-06T16:02:47.846Z,14.39
2023-10-06T16:07:52.045Z,14.32
2023-10-06T16:12:54.641Z,14.25
2023-10-06T16:17:56.462Z,14.18
2023-10-06T16:23:01.032Z,14.08
2023-10-06T16:28:06.526Z,14.01
2023-10-06T16:33:08.960Z,13.95
2023-10-06T16:38:11.902Z,13.91
2023-10-06T16:43:13.786Z,13.88
2023-10-06T16:48:15.669Z,13.86
2023-10-06T16:53:17.875Z,13.82
2023-10-06T16:58:21.117Z,13.78
2023-10-06T17:03:22.848Z,13.76
2023-10-06T17:08:26.202Z,13.75
2023-10-06T17:13:28.663Z,13.71
2023-10-06T17:18:30.254Z,13.69
2023-10-06T17:23:33.201Z,13.67
2023-10-06T17:28:34.774Z,13.63
2023-10-06T17:33:36.349Z,13.60
2023-10-06T17:38:38.146Z,13.58
2023-10-06T17:43:40.037Z,13.55
2023-10-06T17:48:49.228Z,13.54
2023-10-06T17:53:52.264Z,13.54
2023-10-06T17:58:53.868Z,13.53
2023-10-06T18:03:55.899Z,13.54
2023-10-06T18:08:57.808Z,13.54
2023-10-06T18:13:59.526Z,13.55
2023-10-06T18:19:01.892Z,13.57
2023-10-06T18:24:03.657Z,13.61
2023-10-06T18:29:05.647Z,13.64
2023-10-06T18:34:07.485Z,13.68
2023-10-06T18:39:14.540Z,13.73
2023-10-06T18:44:18.144Z,13.77
2023-10-06T18:49:19.834Z,13.79
2023-10-06T18:54:22.930Z,13.82
2023-10-06T18:59:24.447Z,13.85
2023-10-06T19:04:26.491Z,13.87
2023-10-06T19:09:28.210Z,13.90
2023-10-06T19:14:30.985Z,13.91
2023-10-06T19:19:32.615Z,13.92
2023-10-06T19:24:37.341Z,13.93
2023-10-06T19:29:40.605Z,13.93
2023-10-06T19:34:42.614Z,13.93
2023-10-06T19:39:44.458Z,13.93
2023-10-06T19:44:46.121Z,13.94
2023-10-06T19:49:48.177Z,13.95
2023-10-06T19:54:50.890Z,13.95
2023-10-06T19:59:52.507Z,13.96
2023-10-06T20:04:54.106Z,13.94
2023-10-06T20:09:55.942Z,13.91
2023-10-06T20:15:00.256Z,13.89
2023-10-06T20:20:02.679Z,13.88
2023-10-06T20:25:08.127Z,13.87
2023-10-06T20:30:11.720Z,13.87
2023-10-06T20:35:14.414Z,13.87
2023-10-06T20:40:26.200Z,13.89
2023-10-06T20:45:29.756Z,13.87
2023-10-06T20:50:33.589Z,13.87
2023-10-06T20:55:36.069Z,13.88
2023-10-06T21:00:38.036Z,13.88
2023-10-06T21:05:40.507Z,13.90
2023-10-06T21:10:42.172Z,13.94
2023-10-06T21:15:43.778Z,13.87
2023-10-06T21:20:46.546Z,13.74
2023-10-06T21:25:52.389Z,13.61
2023-10-06T21:30:54.083Z,13.50
2023-10-06T21:35:55.617Z,13.38
2023-10-06T21:41:01.205Z,13.30
2023-10-06T21:46:06.801Z,13.24
2023-10-06T21:51:08.912Z,13.18
2023-10-06T21:56:13.644Z,13.16
2023-10-06T22:01:22.801Z,13.15
2023-10-06T22:06:24.450Z,13.10
2023-10-06T22:11:26.220Z,13.07
2023-10-06T22:16:28.458Z,13.04
2023-10-06T22:21:30.995Z,13.02
2023-10-06T22:26:32.701Z,13.01
2023-10-06T22:31:34.389Z,13.00
2023-10-06T22:36:38.199Z,12.99
2023-10-06T22:41:40.419Z,12.97
2023-10-06T22:46:42.657Z,12.96
2023-10-06T22:51:45.232Z,12.96
2023-10-06T22:56:47.484Z,12.96
2023-10-06T23:01:49.753Z,12.97
2023-10-06T23:06:52.204Z,12.98
2023-10-06T23:11:53.784Z,13.01
2023-10-06T23:16:55.390Z,13.00
2023-10-06T23:21:56.973Z,13.00
2023-10-06T23:26:58.540Z,13.00
2023-10-06T23:32:00.221Z,13.01
2023-10-06T23:37:01.969Z,13.01
2023-10-06T23:42:03.559Z,13.03
2023-10-06T23:47:11.378Z,13.03
2023-10-06T23:52:15.074Z,13.04
2023-10-06T23:57:16.886Z,13.05
